createdAt,value
2022-09-18T00:01:18.455Z,90.28
2022-09-18T00:03:46.432Z,90.28
2022-09-18T00:06:27.075Z,90.46
2022-09-18T00:08:57.138Z,90.48
2022-09-18T00:11:25.798Z,90.52
2022-09-18T00:13:52.924Z,90.61
2022-09-18T00:16:31.422Z,90.64
2022-09-18T00:18:58.591Z,90.64
2022-09-18T00:21:26.121Z,90.74
2022-09-18T00:23:55.877Z,90.75
2022-09-18T00:26:25.463Z,90.76
2022-09-18T00:28:54.164Z,90.84
2022-09-18T00:31:30.961Z,90.80
2022-09-18T00:34:00.684Z,90.95
2022-09-18T00:36:29.330Z,90.82
2022-09-18T00:38:58.816Z,90.91
2022-09-18T00:41:29.970Z,90.87
2022-09-18T00:44:30.938Z,90.76
2022-09-18T00:47:10.570Z,90.67
2022-09-18T00:49:40.412Z,90.71
2022-09-18T00:52:08.366Z,90.71
2022-09-18T00:54:42.358Z,90.67
2022-09-18T00:57:13.832Z,90.68
2022-09-18T00:59:43.253Z,90.72
2022-09-18T01:02:10.468Z,90.75
2022-09-18T01:04:38.458Z,90.63
2022-09-18T01:07:09.504Z,90.64
2022-09-18T01:09:49.145Z,90.69
2022-09-18T01:12:51.208Z,90.65
2022-09-18T01:15:41.120Z,90.63
2022-09-18T01:18:46.438Z,90.57
2022-09-18T01:21:15.850Z,90.56
2022-09-18T01:24:16.288Z,90.53
2022-09-18T01:27:07.569Z,90.57
2022-09-18T01:29:34.219Z,90.58
2022-09-18T01:32:09.263Z,90.56
2022-09-18T01:35:09.865Z,90.50
2022-09-18T01:38:03.653Z,90.50
2022-09-18T01:40:40.193Z,90.55
2022-09-18T01:43:16.778Z,90.53
2022-09-18T01:45:47.197Z,90.44
2022-09-18T01:48:26.213Z,90.38
2022-09-18T01:50:59.080Z,90.34
2022-09-18T01:53:41.468Z,90.25
2022-09-18T01:56:17.724Z,90.20
2022-09-18T01:58:45.728Z,90.22
2022-09-18T02:01:16.235Z,90.26
2022-09-18T02:03:49.443Z,90.32
2022-09-18T02:06:21.789Z,90.34
2022-09-18T02:08:55.097Z,90.31
2022-09-18T02:11:23.309Z,90.30
2022-09-18T02:14:11.737Z,90.37
2022-09-18T02:16:45.394Z,90.31
2022-09-18T02:19:21.034Z,90.36
2022-09-18T02:21:50.170Z,90.45
2022-09-18T02:24:22.956Z,90.55
2022-09-18T02:26:52.853Z,90.56
2022-09-18T02:29:22.569Z,90.48
2022-09-18T02:31:50.798Z,90.48
2022-09-18T02:34:20.704Z,90.44
2022-09-18T02:37:11.888Z,90.43
2022-09-18T02:39:44.269Z,90.45
2022-09-18T02:42:13.761Z,90.48
2022-09-18T02:44:52.630Z,90.49
2022-09-18T02:47:34.789Z,90.50
2022-09-18T02:50:23.400Z,90.43
2022-09-18T02:52:57.597Z,90.42
2022-09-18T02:55:33.394Z,90.43
2022-09-18T02:58:05.118Z,90.45
2022-09-18T03:00:33.345Z,90.45
2022-09-18T03:03:00.708Z,90.41
2022-09-18T03:05:27.429Z,90.38
2022-09-18T03:07:54.119Z,90.48
2022-09-18T03:10:20.697Z,90.43
2022-09-18T03:12:47.184Z,90.45
2022-09-18T03:15:13.748Z,90.46
2022-09-18T03:17:40.438Z,90.43
2022-09-18T03:20:07.729Z,90.40
2022-09-18T03:22:34.765Z,90.37
2022-09-18T03:25:01.453Z,90.39
2022-09-18T03:27:28.077Z,90.35
2022-09-18T03:29:54.704Z,90.31
2022-09-18T03:32:21.276Z,90.28
2022-09-18T03:34:48.214Z,90.23
2022-09-18T03:37:14.820Z,90.26
2022-09-18T03:39:41.483Z,90.23
2022-09-18T03:42:08.194Z,90.19
2022-09-18T03:44:34.817Z,90.19
2022-09-18T03:47:01.937Z,90.07
2022-09-18T03:49:28.524Z,90.10
2022-09-18T03:51:55.153Z,90.08
2022-09-18T03:54:21.652Z,90.14
2022-09-18T03:56:48.651Z,90.13
2022-09-18T03:59:15.235Z,90.09
2022-09-18T04:01:42.049Z,90.08
2022-09-18T04:04:08.789Z,90.09
2022-09-18T04:06:35.501Z,90.10
2022-09-18T04:09:02.225Z,90.13
2022-09-18T04:11:28.926Z,90.14
2022-09-18T04:13:55.600Z,90.08
2022-09-18T04:16:22.276Z,90.11
2022-09-18T04:18:48.886Z,90.14
2022-09-18T04:21:15.597Z,90.10
2022-09-18T04:23:42.256Z,90.07
2022-09-18T04:26:09.843Z,90.10
2022-09-18T04:28:37.422Z,90.17
2022-09-18T04:31:04.232Z,90.22
2022-09-18T04:33:30.870Z,90.19
2022-09-18T04:35:57.607Z,90.10
2022-09-18T04:38:27.355Z,90.12
2022-09-18T04:40:58.495Z,90.12
2022-09-18T04:43:26.779Z,90.13
2022-09-18T04:45:55.044Z,90.19
2022-09-18T04:48:22.397Z,90.19
2022-09-18T04:50:49.359Z,90.08
2022-09-18T04:53:16.233Z,90.01
2022-09-18T04:55:44.578Z,89.95
2022-09-18T04:58:14.069Z,89.91
2022-09-18T05:00:41.389Z,89.70
2022-09-18T05:03:08.772Z,89.62
2022-09-18T05:05:35.695Z,89.64
2022-09-18T05:08:05.177Z,89.65
2022-09-18T05:10:32.189Z,89.74
2022-09-18T05:12:58.780Z,89.73
2022-09-18T05:15:25.398Z,89.77
2022-09-18T05:18:00.494Z,89.82
2022-09-18T05:20:28.224Z,89.91
2022-09-18T05:22:55.230Z,90.05
2022-09-18T05:25:26.864Z,90.08
2022-09-18T05:27:55.271Z,90.24
2022-09-18T05:30:23.224Z,90.25
2022-09-18T05:33:01.626Z,90.44
2022-09-18T05:35:31.783Z,90.56
2022-09-18T05:37:58.920Z,90.62
2022-09-18T05:40:30.544Z,90.62
2022-09-18T05:42:57.572Z,90.73
2022-09-18T05:45:31.951Z,90.78
2022-09-18T05:48:02.387Z,90.78
2022-09-18T05:50:30.759Z,90.75
2022-09-18T05:53:06.601Z,90.72
2022-09-18T05:55:34.264Z,90.75
2022-09-18T05:58:02.585Z,90.71
2022-09-18T06:00:31.946Z,90.77
2022-09-18T06:03:24.669Z,90.82
2022-09-18T06:05:52.994Z,90.85
2022-09-18T06:08:20.550Z,90.85
2022-09-18T06:10:47.205Z,90.92
2022-09-18T06:13:16.284Z,90.62
2022-09-18T06:15:47.849Z,90.63
2022-09-18T06:18:15.346Z,90.57
2022-09-18T06:20:43.623Z,90.54
2022-09-18T06:23:10.856Z,90.58
2022-09-18T06:25:37.557Z,90.44
2022-09-18T06:28:06.027Z,90.40
2022-09-18T06:30:34.924Z,90.35
2022-09-18T06:33:06.033Z,90.17
2022-09-18T06:35:34.047Z,90.17
2022-09-18T06:38:02.774Z,89.91
2022-09-18T06:40:33.427Z,89.84
2022-09-18T06:43:02.257Z,89.82
2022-09-18T06:45:30.650Z,89.82
2022-09-18T06:48:02.079Z,89.70
2022-09-18T06:50:29.335Z,89.45
2022-09-18T06:53:07.747Z,89.43
2022-09-18T06:55:38.716Z,89.36
2022-09-18T06:58:05.647Z,89.45
2022-09-18T07:00:32.578Z,89.24
2022-09-18T07:03:19.129Z,89.28
2022-09-18T07:05:45.843Z,89.32
2022-09-18T07:08:13.514Z,89.45
2022-09-18T07:10:40.562Z,89.38
2022-09-18T07:13:08.099Z,89.04
2022-09-18T07:15:35.016Z,88.73
2022-09-18T07:18:03.729Z,88.61
2022-09-18T07:20:30.799Z,88.58
2022-09-18T07:23:01.464Z,88.59
2022-09-18T07:25:38.124Z,88.60
2022-09-18T07:28:09.211Z,88.50
2022-09-18T07:30:37.365Z,88.34
2022-09-18T07:33:06.331Z,87.97
2022-09-18T07:35:33.415Z,88.18
2022-09-18T07:38:01.614Z,87.93
2022-09-18T07:40:29.085Z,87.40
2022-09-18T07:43:05.083Z,87.43
2022-09-18T07:45:32.287Z,87.21
2022-09-18T07:48:05.928Z,87.41
2022-09-18T07:50:33.360Z,87.16
2022-09-18T07:53:02.977Z,87.11
2022-09-18T07:55:29.829Z,87.27
2022-09-18T07:57:58.635Z,87.75
2022-09-18T08:00:27.341Z,88.06
2022-09-18T08:03:14.848Z,88.42
2022-09-18T08:05:41.851Z,88.58
2022-09-18T08:08:12.734Z,88.37
2022-09-18T08:10:41.276Z,88.37
2022-09-18T08:13:07.954Z,88.59
2022-09-18T08:15:37.284Z,88.38
2022-09-18T08:18:07.521Z,88.60
2022-09-18T08:20:34.678Z,87.60
2022-09-18T08:23:04.244Z,87.86
2022-09-18T08:25:31.628Z,88.44
2022-09-18T08:28:03.106Z,88.83
2022-09-18T08:30:30.549Z,88.77
2022-09-18T08:33:09.500Z,89.14
2022-09-18T08:35:36.834Z,89.47
2022-09-18T08:38:03.807Z,89.45
2022-09-18T08:41:23.190Z,89.65
2022-09-18T08:44:06.503Z,89.88
2022-09-18T08:47:01.592Z,89.80
2022-09-18T08:49:46.889Z,90.14
2022-09-18T08:52:22.997Z,89.96
2022-09-18T08:54:58.617Z,90.23
2022-09-18T08:57:32.600Z,89.58
2022-09-18T09:00:31.730Z,89.92
2022-09-18T09:03:14.641Z,90.42
2022-09-18T09:06:03.491Z,89.57
2022-09-18T09:08:35.814Z,89.15
2022-09-18T09:11:20.640Z,89.09
2022-09-18T09:14:15.370Z,89.22
2022-09-18T09:16:44.234Z,89.27
2022-09-18T09:19:49.012Z,88.38
2022-09-18T09:22:40.965Z,87.29
2022-09-18T09:25:20.809Z,86.21
2022-09-18T09:28:16.329Z,84.81
2022-09-18T09:31:06.591Z,84.20
2022-09-18T09:34:13.590Z,81.94
2022-09-18T09:36:43.323Z,82.11
2022-09-18T09:39:26.964Z,81.15
2022-09-18T09:42:07.208Z,79.72
2022-09-18T09:44:55.695Z,80.87
2022-09-18T09:47:31.728Z,80.60
2022-09-18T09:50:04.604Z,79.79
2022-09-18T09:52:31.936Z,79.81
2022-09-18T09:55:09.938Z,78.14
2022-09-18T09:57:39.195Z,79.42
2022-09-18T10:00:14.500Z,77.51
2022-09-18T10:03:23.595Z,77.58
2022-09-18T10:06:09.158Z,77.19
2022-09-18T10:08:47.521Z,76.17
2022-09-18T10:11:22.624Z,75.30
2022-09-18T10:14:00.484Z,75.64
2022-09-18T10:16:38.566Z,75.45
2022-09-18T10:19:05.619Z,74.76
2022-09-18T10:21:35.703Z,75.19
2022-09-18T10:24:31.661Z,74.97
2022-09-18T10:27:15.558Z,75.55
2022-09-18T10:29:42.539Z,74.97
2022-09-18T10:32:13.664Z,74.44
2022-09-18T10:34:45.524Z,73.59
2022-09-18T10:37:16.774Z,71.62
2022-09-18T10:39:52.780Z,70.83
2022-09-18T10:42:22.830Z,70.34
2022-09-18T10:45:01.611Z,70.48
2022-09-18T10:47:32.579Z,69.86
2022-09-18T10:50:17.035Z,70.38
2022-09-18T10:52:53.688Z,69.75
2022-09-18T10:55:27.852Z,69.12
2022-09-18T10:57:54.374Z,67.62
2022-09-18T11:00:21.233Z,68.53
2022-09-18T11:02:58.021Z,69.51
2022-09-18T11:05:30.656Z,69.24
2022-09-18T11:08:00.929Z,68.45
2022-09-18T11:10:32.633Z,69.01
2022-09-18T11:13:02.319Z,67.88
2022-09-18T11:15:32.048Z,66.69
2022-09-18T11:18:04.906Z,66.08
2022-09-18T11:20:41.385Z,66.06
2022-09-18T11:23:34.204Z,65.19
2022-09-18T11:26:36.815Z,65.18
2022-09-18T11:29:27.174Z,65.79
2022-09-18T11:32:19.751Z,65.31
2022-09-18T11:34:50.737Z,63.37
2022-09-18T11:37:35.704Z,63.63
2022-09-18T11:40:15.230Z,64.47
2022-09-18T11:42:47.760Z,64.72
2022-09-18T11:45:26.338Z,65.25
2022-09-18T11:48:05.509Z,65.27
2022-09-18T11:50:55.742Z,64.91
2022-09-18T11:53:44.049Z,64.33
2022-09-18T11:56:18.600Z,63.54
2022-09-18T11:58:53.555Z,64.07
2022-09-18T12:01:26.880Z,64.02
2022-09-18T12:04:18.440Z,61.83
2022-09-18T12:07:10.935Z,62.23
2022-09-18T12:10:00.679Z,60.50
2022-09-18T12:12:36.539Z,59.31
2022-09-18T12:15:15.192Z,57.03
2022-09-18T12:18:03.844Z,56.60
2022-09-18T12:20:43.132Z,56.71
2022-09-18T12:23:16.668Z,57.14
2022-09-18T12:25:47.677Z,57.00
2022-09-18T12:28:32.951Z,57.60
2022-09-18T12:31:21.872Z,57.93
2022-09-18T12:34:22.693Z,59.43
2022-09-18T12:37:18.178Z,60.41
2022-09-18T12:40:01.184Z,61.18
2022-09-18T12:43:05.611Z,61.61
2022-09-18T12:45:38.821Z,62.44
2022-09-18T12:48:28.120Z,62.23
2022-09-18T12:51:11.742Z,62.58
2022-09-18T12:53:56.734Z,61.88
2022-09-18T12:56:29.838Z,62.22
2022-09-18T12:59:05.502Z,61.68
2022-09-18T13:01:44.766Z,61.46
2022-09-18T13:04:38.101Z,61.58
2022-09-18T13:07:13.302Z,61.48
2022-09-18T13:09:43.073Z,61.92
2022-09-18T13:12:17.870Z,62.81
2022-09-18T13:14:49.934Z,63.50
2022-09-18T13:17:41.517Z,63.15
2022-09-18T13:20:24.348Z,63.58
2022-09-18T13:23:11.713Z,63.40
2022-09-18T13:25:40.565Z,63.81
2022-09-18T13:28:13.738Z,63.76
2022-09-18T13:30:41.066Z,63.62
2022-09-18T13:33:26.249Z,64.27
2022-09-18T13:35:56.283Z,64.89
2022-09-18T13:38:28.675Z,65.79
2022-09-18T13:41:03.173Z,66.45
2022-09-18T13:43:32.645Z,67.36
2022-09-18T13:46:06.028Z,67.61
2022-09-18T13:48:39.660Z,67.94
2022-09-18T13:51:31.808Z,68.03
2022-09-18T13:54:10.598Z,67.96
2022-09-18T13:57:14.238Z,67.85
2022-09-18T14:00:05.353Z,67.76
2022-09-18T14:02:38.172Z,67.21
2022-09-18T14:05:34.104Z,66.68
2022-09-18T14:08:32.814Z,65.72
2022-09-18T14:11:24.614Z,64.86
2022-09-18T14:13:57.198Z,62.82
2022-09-18T14:16:45.570Z,61.15
2022-09-18T14:19:33.079Z,60.90
2022-09-18T14:22:00.961Z,61.37
2022-09-18T14:24:39.853Z,61.47
2022-09-18T14:27:49.519Z,62.53
2022-09-18T14:30:17.799Z,64.52
2022-09-18T14:33:24.315Z,65.43
2022-09-18T14:36:04.054Z,66.45
2022-09-18T14:38:56.829Z,67.48
2022-09-18T14:41:31.560Z,68.12
2022-09-18T14:44:01.269Z,68.48
2022-09-18T14:46:28.554Z,69.29
2022-09-18T14:48:55.606Z,69.60
2022-09-18T14:51:28.308Z,69.82
2022-09-18T14:53:57.758Z,70.26
2022-09-18T14:56:33.979Z,70.89
2022-09-18T14:59:07.918Z,71.15
2022-09-18T15:01:36.943Z,71.51
2022-09-18T15:04:06.095Z,71.68
2022-09-18T15:06:49.418Z,72.17
2022-09-18T15:09:24.090Z,72.64
2022-09-18T15:12:06.482Z,73.17
2022-09-18T15:14:42.806Z,73.54
2022-09-18T15:17:20.728Z,73.70
2022-09-18T15:19:58.554Z,73.86
2022-09-18T15:22:27.282Z,74.15
2022-09-18T15:24:54.767Z,74.36
2022-09-18T15:27:22.970Z,74.42
2022-09-18T15:30:01.940Z,74.61
2022-09-18T15:32:38.305Z,75.01
2022-09-18T15:35:08.330Z,75.30
2022-09-18T15:37:37.886Z,75.69
2022-09-18T15:40:09.109Z,75.86
2022-09-18T15:42:41.589Z,76.03
2022-09-18T15:45:18.087Z,76.18
2022-09-18T15:47:45.894Z,76.30
2022-09-18T15:50:12.536Z,76.44
2022-09-18T15:52:48.583Z,76.38
2022-09-18T15:55:23.245Z,76.17
2022-09-18T15:57:53.734Z,76.03
2022-09-18T16:00:24.159Z,76.24
2022-09-18T16:02:59.971Z,76.32
2022-09-18T16:05:31.192Z,76.61
2022-09-18T16:08:01.373Z,76.61
2022-09-18T16:10:33.983Z,76.65
2022-09-18T16:13:20.561Z,76.79
2022-09-18T16:16:07.295Z,76.88
2022-09-18T16:18:48.044Z,76.82
2022-09-18T16:21:22.790Z,77.02
2022-09-18T16:24:02.558Z,77.24
2022-09-18T16:26:33.312Z,77.59
2022-09-18T16:29:05.927Z,77.71
2022-09-18T16:31:37.067Z,78.02
2022-09-18T16:34:25.584Z,78.38
2022-09-18T16:36:55.210Z,78.39
2022-09-18T16:39:24.902Z,78.39
2022-09-18T16:41:52.305Z,78.61
2022-09-18T16:44:19.139Z,78.75
2022-09-18T16:46:59.731Z,79.02
2022-09-18T16:49:33.486Z,78.98
2022-09-18T16:52:00.192Z,78.93
2022-09-18T16:54:27.022Z,78.99
2022-09-18T16:57:02.444Z,79.03
2022-09-18T16:59:31.683Z,78.97
2022-09-18T17:02:04.274Z,79.09
2022-09-18T17:04:33.587Z,78.91
2022-09-18T17:07:00.915Z,78.75
2022-09-18T17:09:27.958Z,78.73
2022-09-18T17:11:55.132Z,78.78
2022-09-18T17:14:24.095Z,78.77
2022-09-18T17:16:51.082Z,78.81
2022-09-18T17:19:18.483Z,78.86
2022-09-18T17:21:45.272Z,78.83
2022-09-18T17:24:12.492Z,78.81
2022-09-18T17:26:41.262Z,78.93
2022-09-18T17:29:11.741Z,78.98
2022-09-18T17:31:38.680Z,78.98
2022-09-18T17:34:05.559Z,78.92
2022-09-18T17:36:36.710Z,78.76
2022-09-18T17:39:04.333Z,78.70
2022-09-18T17:41:31.824Z,78.71
2022-09-18T17:43:58.971Z,78.47
2022-09-18T17:46:26.597Z,78.32
2022-09-18T17:48:58.188Z,78.28
2022-09-18T17:51:28.741Z,78.32
2022-09-18T17:53:59.041Z,78.43
2022-09-18T17:56:32.132Z,78.31
2022-09-18T17:59:05.218Z,78.44
2022-09-18T18:01:37.015Z,78.47
2022-09-18T18:04:04.833Z,78.51
2022-09-18T18:06:32.069Z,78.64
2022-09-18T18:08:58.797Z,78.63
2022-09-18T18:11:25.759Z,78.71
2022-09-18T18:13:54.170Z,78.70
2022-09-18T18:16:30.102Z,78.56
2022-09-18T18:19:00.842Z,78.50
2022-09-18T18:21:28.440Z,78.49
2022-09-18T18:23:57.122Z,78.31
2022-09-18T18:26:25.587Z,77.92
2022-09-18T18:28:52.309Z,78.18
2022-09-18T18:31:19.068Z,78.78
2022-09-18T18:33:45.933Z,79.60
2022-09-18T18:36:16.384Z,80.24
2022-09-18T18:38:45.082Z,80.59
2022-09-18T18:41:13.764Z,80.74
2022-09-18T18:43:41.526Z,80.82
2022-09-18T18:46:12.232Z,80.51
2022-09-18T18:48:43.639Z,81.22
2022-09-18T18:51:15.828Z,82.12
2022-09-18T18:53:43.383Z,82.71
2022-09-18T18:56:13.836Z,83.21
2022-09-18T18:58:42.270Z,83.74
2022-09-18T19:01:14.891Z,84.05
2022-09-18T19:03:48.559Z,84.36
2022-09-18T19:06:15.304Z,84.56
2022-09-18T19:08:46.424Z,84.91
2022-09-18T19:11:15.090Z,85.12
2022-09-18T19:13:45.209Z,85.07
2022-09-18T19:16:12.608Z,85.17
2022-09-18T19:18:40.623Z,85.35
2022-09-18T19:21:07.864Z,85.41
2022-09-18T19:23:35.181Z,85.58
2022-09-18T19:26:02.328Z,85.65
2022-09-18T19:28:30.883Z,85.77
2022-09-18T19:31:03.670Z,85.84
2022-09-18T19:33:32.733Z,85.86
2022-09-18T19:36:05.318Z,85.96
2022-09-18T19:38:32.968Z,86.09
2022-09-18T19:41:01.788Z,86.01
2022-09-18T19:43:33.505Z,85.98
2022-09-18T19:46:01.223Z,85.77
2022-09-18T19:48:28.351Z,85.82
2022-09-18T19:50:55.350Z,85.69
2022-09-18T19:53:22.344Z,85.57
2022-09-18T19:55:49.273Z,85.46
2022-09-18T19:58:17.211Z,85.56
2022-09-18T20:00:45.260Z,86.04
2022-09-18T20:03:12.238Z,86.71
2022-09-18T20:05:40.493Z,86.93
2022-09-18T20:08:08.318Z,87.13
2022-09-18T20:10:37.429Z,87.38
2022-09-18T20:13:05.012Z,87.93
2022-09-18T20:15:31.955Z,88.35
2022-09-18T20:17:59.169Z,88.77
2022-09-18T20:20:25.952Z,89.14
2022-09-18T20:22:54.799Z,88.90
2022-09-18T20:25:22.304Z,89.02
2022-09-18T20:27:49.026Z,89.26
2022-09-18T20:30:17.590Z,89.22
2022-09-18T20:32:44.353Z,89.20
2022-09-18T20:35:10.952Z,89.36
2022-09-18T20:37:37.769Z,88.87
2022-09-18T20:40:06.603Z,88.76
2022-09-18T20:42:34.033Z,88.87
2022-09-18T20:45:01.855Z,88.67
2022-09-18T20:47:34.472Z,88.62
2022-09-18T20:50:07.460Z,88.77
2022-09-18T20:52:42.460Z,88.70
2022-09-18T20:55:12.715Z,88.50
2022-09-18T20:57:45.808Z,88.49
2022-09-18T21:00:17.506Z,88.43
2022-09-18T21:02:50.391Z,88.45
2022-09-18T21:05:17.173Z,88.51
2022-09-18T21:07:45.295Z,88.30
2022-09-18T21:10:13.548Z,88.47
2022-09-18T21:12:40.207Z,88.72
2022-09-18T21:15:12.929Z,88.75
2022-09-18T21:17:39.665Z,88.63
2022-09-18T21:20:06.587Z,88.61
2022-09-18T21:22:33.299Z,88.53
2022-09-18T21:25:00.156Z,88.30
2022-09-18T21:27:26.944Z,88.12
2022-09-18T21:29:55.924Z,87.97
2022-09-18T21:32:23.058Z,88.15
2022-09-18T21:34:52.396Z,87.83
2022-09-18T21:37:19.242Z,87.71
2022-09-18T21:39:45.937Z,87.77
2022-09-18T21:42:13.739Z,87.54
2022-09-18T21:44:40.299Z,87.52
2022-09-18T21:47:10.332Z,87.07
2022-09-18T21:49:36.983Z,86.91
2022-09-18T21:52:06.841Z,86.97
2022-09-18T21:54:33.877Z,86.77
2022-09-18T21:57:01.155Z,86.84
2022-09-18T21:59:30.547Z,86.82
2022-09-18T22:01:58.248Z,87.00
2022-09-18T22:04:27.917Z,87.03
2022-09-18T22:06:56.946Z,87.04
2022-09-18T22:09:29.853Z,87.20
2022-09-18T22:11:57.700Z,87.44
2022-09-18T22:14:29.429Z,87.57
2022-09-18T22:16:58.964Z,87.59
2022-09-18T22:19:25.633Z,87.68
2022-09-18T22:21:52.225Z,87.69
2022-09-18T22:24:24.463Z,87.93
2022-09-18T22:26:57.004Z,87.76
2022-09-18T22:29:25.687Z,87.79
2022-09-18T22:31:53.243Z,87.79
2022-09-18T22:34:23.087Z,87.93
2022-09-18T22:36:52.264Z,87.86
2022-09-18T22:39:20.552Z,87.95
2022-09-18T22:41:48.290Z,88.04
2022-09-18T22:44:15.269Z,88.25
2022-09-18T22:46:44.951Z,88.30
2022-09-18T22:49:14.312Z,88.26
2022-09-18T22:51:43.098Z,88.37
2022-09-18T22:54:11.850Z,88.26
2022-09-18T22:56:51.776Z,88.58
2022-09-18T22:59:22.091Z,88.63
2022-09-18T23:01:55.970Z,88.79
2022-09-18T23:04:24.986Z,88.87
2022-09-18T23:06:51.831Z,89.02
2022-09-18T23:09:19.142Z,89.02
2022-09-18T23:11:48.504Z,88.96
2022-09-18T23:14:18.445Z,89.29
2022-09-18T23:16:46.456Z,89.53
2022-09-18T23:19:16.518Z,89.59
2022-09-18T23:21:43.158Z,89.57
2022-09-18T23:24:11.764Z,89.63
2022-09-18T23:26:42.189Z,89.68
2022-09-18T23:29:12.640Z,89.39
2022-09-18T23:31:42.863Z,89.41
2022-09-18T23:34:30.975Z,89.35
2022-09-18T23:36:58.285Z,88.78
2022-09-18T23:39:32.235Z,88.81
2022-09-18T23:42:18.957Z,88.79
2022-09-18T23:44:46.027Z,88.55
2022-09-18T23:47:12.720Z,88.49
2022-09-18T23:49:39.251Z,88.46
2022-09-18T23:52:06.015Z,88.12
2022-09-18T23:54:32.605Z,87.97
2022-09-18T23:56:59.529Z,87.83
2022-09-18T23:59:27.190Z,87.82
